sensor_id;sensor_type;location;lat;lon;timestamp;P1;durP1;ratioP1;P2;durP2;ratioP2
30335;SDS011;17142;47.990;7.846;2022-08-19T00:02:25;14.13;;;10.50;;
30335;SDS011;17142;47.990;7.846;2022-08-19T00:04:51;17.60;;;11.77;;
30335;SDS011;17142;47.990;7.846;2022-08-19T00:07:19;21.63;;;12.87;;
30335;SDS011;17142;47.990;7.846;2022-08-19T00:09:45;18.33;;;13.23;;
30335;SDS011;17142;47.990;7.846;2022-08-19T00:12:11;16.27;;;12.70;;
30335;SDS011;17142;47.990;7.846;2022-08-19T00:14:37;13.47;;;11.00;;
30335;SDS011;17142;47.990;7.846;2022-08-19T00:17:03;15.33;;;11.33;;
30335;SDS011;17142;47.990;7.846;2022-08-19T00:19:31;19.67;;;15.20;;
30335;SDS011;17142;47.990;7.846;2022-08-19T00:21:57;15.23;;;12.77;;
30335;SDS011;17142;47.990;7.846;2022-08-19T00:24:26;14.03;;;11.37;;
30335;SDS011;17142;47.990;7.846;2022-08-19T00:26:54;15.23;;;10.97;;
30335;SDS011;17142;47.990;7.846;2022-08-19T00:29:22;16.47;;;12.50;;
30335;SDS011;17142;47.990;7.846;2022-08-19T00:31:49;17.97;;;15.43;;
30335;SDS011;17142;47.990;7.846;2022-08-19T00:34:22;15.20;;;10.87;;
30335;SDS011;17142;47.990;7.846;2022-08-19T00:36:50;17.40;;;11.47;;
30335;SDS011;17142;47.990;7.846;2022-08-19T00:39:15;14.37;;;12.37;;
30335;SDS011;17142;47.990;7.846;2022-08-19T00:41:42;13.70;;;10.20;;
30335;SDS011;17142;47.990;7.846;2022-08-19T00:44:13;14.07;;;10.70;;
30335;SDS011;17142;47.990;7.846;2022-08-19T00:46:45;12.00;;;9.53;;
30335;SDS011;17142;47.990;7.846;2022-08-19T00:51:46;11.40;;;8.70;;
30335;SDS011;17142;47.990;7.846;2022-08-19T00:54:15;12.87;;;8.60;;
30335;SDS011;17142;47.990;7.846;2022-08-19T00:56:42;11.37;;;8.57;;
30335;SDS011;17142;47.990;7.846;2022-08-19T00:59:11;9.03;;;7.63;;
30335;SDS011;17142;47.990;7.846;2022-08-19T01:01:38;10.27;;;8.43;;
30335;SDS011;17142;47.990;7.846;2022-08-19T01:04:05;11.17;;;7.80;;
30335;SDS011;17142;47.990;7.846;2022-08-19T01:06:33;10.20;;;7.77;;
30335;SDS011;17142;47.990;7.846;2022-08-19T01:09:02;10.20;;;7.10;;
30335;SDS011;17142;47.990;7.846;2022-08-19T07:17:52;12.93;;;11.63;;
30335;SDS011;17142;47.990;7.846;2022-08-19T07:20:18;11.87;;;10.67;;
30335;SDS011;17142;47.990;7.846;2022-08-19T07:22:43;14.03;;;12.63;;
30335;SDS011;17142;47.990;7.846;2022-08-19T07:25:10;10.47;;;9.33;;
30335;SDS011;17142;47.990;7.846;2022-08-19T07:27:38;13.13;;;10.37;;
30335;SDS011;17142;47.990;7.846;2022-08-19T07:30:04;13.17;;;10.93;;
30335;SDS011;17142;47.990;7.846;2022-08-19T07:32:33;12.10;;;10.80;;
30335;SDS011;17142;47.990;7.846;2022-08-19T07:34:58;10.80;;;9.70;;
30335;SDS011;17142;47.990;7.846;2022-08-19T07:37:28;11.30;;;10.10;;
30335;SDS011;17142;47.990;7.846;2022-08-19T07:39:53;12.43;;;11.13;;
30335;SDS011;17142;47.990;7.846;2022-08-19T07:42:19;12.00;;;10.60;;
30335;SDS011;17142;47.990;7.846;2022-08-19T07:44:46;12.40;;;11.10;;
30335;SDS011;17142;47.990;7.846;2022-08-19T07:47:11;11.40;;;10.30;;
30335;SDS011;17142;47.990;7.846;2022-08-19T07:49:38;11.00;;;10.00;;
30335;SDS011;17142;47.990;7.846;2022-08-19T07:52:05;8.93;;;8.23;;
30335;SDS011;17142;47.990;7.846;2022-08-19T07:54:37;11.13;;;10.03;;
30335;SDS011;17142;47.990;7.846;2022-08-19T07:57:03;10.90;;;9.20;;
30335;SDS011;17142;47.990;7.846;2022-08-19T07:59:29;11.33;;;10.30;;
30335;SDS011;17142;47.990;7.846;2022-08-19T08:01:56;14.40;;;11.27;;
30335;SDS011;17142;47.990;7.846;2022-08-19T08:04:25;13.23;;;11.97;;
30335;SDS011;17142;47.990;7.846;2022-08-19T08:07:10;13.77;;;11.87;;
30335;SDS011;17142;47.990;7.846;2022-08-19T08:09:54;13.23;;;11.80;;
30335;SDS011;17142;47.990;7.846;2022-08-19T08:12:22;13.50;;;12.10;;
30335;SDS011;17142;47.990;7.846;2022-08-19T08:14:56;14.63;;;13.13;;
30335;SDS011;17142;47.990;7.846;2022-08-19T08:17:24;12.30;;;10.50;;
30335;SDS011;17142;47.990;7.846;2022-08-19T08:19:51;13.50;;;12.20;;
30335;SDS011;17142;47.990;7.846;2022-08-19T08:22:18;14.43;;;12.90;;
30335;SDS011;17142;47.990;7.846;2022-08-19T08:25:11;20.27;;;17.70;;
30335;SDS011;17142;47.990;7.846;2022-08-19T08:27:43;15.83;;;14.23;;
30335;SDS011;17142;47.990;7.846;2022-08-19T08:30:12;17.70;;;15.10;;
30335;SDS011;17142;47.990;7.846;2022-08-19T08:32:42;17.70;;;15.73;;
30335;SDS011;17142;47.990;7.846;2022-08-19T08:35:09;14.50;;;13.10;;
30335;SDS011;17142;47.990;7.846;2022-08-19T08:37:39;18.30;;;15.13;;
30335;SDS011;17142;47.990;7.846;2022-08-19T08:45:46;13.70;;;12.40;;
30335;SDS011;17142;47.990;7.846;2022-08-19T08:48:36;16.57;;;14.87;;
30335;SDS011;17142;47.990;7.846;2022-08-19T08:51:13;19.63;;;17.57;;
30335;SDS011;17142;47.990;7.846;2022-08-19T08:54:04;17.63;;;15.77;;
30335;SDS011;17142;47.990;7.846;2022-08-19T08:56:32;19.17;;;16.40;;
30335;SDS011;17142;47.990;7.846;2022-08-19T08:58:58;19.47;;;15.70;;
30335;SDS011;17142;47.990;7.846;2022-08-19T09:01:32;21.53;;;18.33;;
30335;SDS011;17142;47.990;7.846;2022-08-19T09:03:58;20.37;;;18.20;;
30335;SDS011;17142;47.990;7.846;2022-08-19T09:17:05;17.70;;;15.80;;
30335;SDS011;17142;47.990;7.846;2022-08-19T09:19:33;16.50;;;14.80;;
30335;SDS011;17142;47.990;7.846;2022-08-19T09:22:00;15.17;;;13.47;;
30335;SDS011;17142;47.990;7.846;2022-08-19T09:24:26;20.00;;;18.00;;
30335;SDS011;17142;47.990;7.846;2022-08-19T09:26:54;17.37;;;14.50;;
30335;SDS011;17142;47.990;7.846;2022-08-19T09:29:22;17.40;;;15.17;;
30335;SDS011;17142;47.990;7.846;2022-08-19T09:31:48;22.43;;;19.83;;
30335;SDS011;17142;47.990;7.846;2022-08-19T09:34:14;21.83;;;19.23;;
30335;SDS011;17142;47.990;7.846;2022-08-19T09:36:40;18.50;;;16.60;;
30335;SDS011;17142;47.990;7.846;2022-08-19T09:39:10;19.00;;;17.10;;
30335;SDS011;17142;47.990;7.846;2022-08-19T09:41:36;19.97;;;16.17;;
30335;SDS011;17142;47.990;7.846;2022-08-19T09:44:02;20.33;;;16.20;;
30335;SDS011;17142;47.990;7.846;2022-08-19T09:46:30;17.80;;;15.97;;
30335;SDS011;17142;47.990;7.846;2022-08-19T09:49:00;17.70;;;15.53;;
30335;SDS011;17142;47.990;7.846;2022-08-19T09:51:27;23.00;;;19.60;;
30335;SDS011;17142;47.990;7.846;2022-08-19T09:53:54;16.27;;;14.60;;
30335;SDS011;17142;47.990;7.846;2022-08-19T09:56:23;18.40;;;16.30;;
30335;SDS011;17142;47.990;7.846;2022-08-19T09:58:49;17.03;;;15.13;;
30335;SDS011;17142;47.990;7.846;2022-08-19T10:01:24;19.97;;;16.27;;
30335;SDS011;17142;47.990;7.846;2022-08-19T10:03:53;18.40;;;16.57;;
30335;SDS011;17142;47.990;7.846;2022-08-19T10:06:21;14.37;;;12.97;;
30335;SDS011;17142;47.990;7.846;2022-08-19T10:08:54;17.23;;;15.50;;
30335;SDS011;17142;47.990;7.846;2022-08-19T10:11:20;18.33;;;16.40;;
30335;SDS011;17142;47.990;7.846;2022-08-19T10:13:48;17.53;;;15.73;;
30335;SDS011;17142;47.990;7.846;2022-08-19T10:16:17;16.50;;;14.77;;
30335;SDS011;17142;47.990;7.846;2022-08-19T10:18:46;16.97;;;15.20;;
30335;SDS011;17142;47.990;7.846;2022-08-19T10:21:19;15.47;;;14.00;;
30335;SDS011;17142;47.990;7.846;2022-08-19T10:23:48;18.13;;;15.77;;
30335;SDS011;17142;47.990;7.846;2022-08-19T10:26:16;20.43;;;18.33;;
30335;SDS011;17142;47.990;7.846;2022-08-19T10:28:56;17.80;;;16.00;;
30335;SDS011;17142;47.990;7.846;2022-08-19T10:31:27;17.70;;;15.00;;
30335;SDS011;17142;47.990;7.846;2022-08-19T10:33:54;19.47;;;17.47;;
30335;SDS011;17142;47.990;7.846;2022-08-19T10:36:25;20.70;;;17.90;;
30335;SDS011;17142;47.990;7.846;2022-08-19T10:38:58;19.37;;;16.63;;
30335;SDS011;17142;47.990;7.846;2022-08-19T10:41:27;21.27;;;16.03;;
30335;SDS011;17142;47.990;7.846;2022-08-19T10:43:55;21.83;;;18.03;;
30335;SDS011;17142;47.990;7.846;2022-08-19T10:46:28;17.20;;;15.40;;
30335;SDS011;17142;47.990;7.846;2022-08-19T10:48:57;17.10;;;14.30;;
30335;SDS011;17142;47.990;7.846;2022-08-19T10:51:28;16.43;;;14.73;;
30335;SDS011;17142;47.990;7.846;2022-08-19T10:54:12;16.67;;;14.97;;
30335;SDS011;17142;47.990;7.846;2022-08-19T10:56:40;18.90;;;16.87;;
30335;SDS011;17142;47.990;7.846;2022-08-19T10:59:23;18.93;;;17.03;;
30335;SDS011;17142;47.990;7.846;2022-08-19T11:01:51;15.13;;;13.40;;
30335;SDS011;17142;47.990;7.846;2022-08-19T11:04:17;17.10;;;14.70;;
30335;SDS011;17142;47.990;7.846;2022-08-19T11:06:45;15.60;;;14.00;;
30335;SDS011;17142;47.990;7.846;2022-08-19T11:09:15;18.77;;;16.47;;
30335;SDS011;17142;47.990;7.846;2022-08-19T11:11:51;15.67;;;14.07;;
30335;SDS011;17142;47.990;7.846;2022-08-19T11:14:18;13.77;;;12.37;;
30335;SDS011;17142;47.990;7.846;2022-08-19T11:16:48;19.53;;;16.87;;
30335;SDS011;17142;47.990;7.846;2022-08-19T11:19:14;9.83;;;8.93;;
30335;SDS011;17142;47.990;7.846;2022-08-19T11:21:44;13.20;;;11.30;;
30335;SDS011;17142;47.990;7.846;2022-08-19T11:24:15;10.60;;;9.50;;
30335;SDS011;17142;47.990;7.846;2022-08-19T11:26:43;16.63;;;14.77;;
30335;SDS011;17142;47.990;7.846;2022-08-19T11:29:10;16.20;;;13.97;;
30335;SDS011;17142;47.990;7.846;2022-08-19T11:31:40;15.97;;;14.27;;
30335;SDS011;17142;47.990;7.846;2022-08-19T11:34:08;18.37;;;16.43;;
30335;SDS011;17142;47.990;7.846;2022-08-19T11:36:37;17.80;;;15.07;;
30335;SDS011;17142;47.990;7.846;2022-08-19T11:39:05;16.33;;;14.27;;
30335;SDS011;17142;47.990;7.846;2022-08-19T11:41:31;17.73;;;15.90;;
30335;SDS011;17142;47.990;7.846;2022-08-19T11:43:57;16.97;;;15.27;;
30335;SDS011;17142;47.990;7.846;2022-08-19T11:46:24;17.40;;;15.30;;
30335;SDS011;17142;47.990;7.846;2022-08-19T11:48:54;17.10;;;14.70;;
30335;SDS011;17142;47.990;7.846;2022-08-19T11:51:22;19.17;;;17.13;;
30335;SDS011;17142;47.990;7.846;2022-08-19T11:53:54;15.30;;;13.67;;
30335;SDS011;17142;47.990;7.846;2022-08-19T11:56:21;21.13;;;16.13;;
30335;SDS011;17142;47.990;7.846;2022-08-19T11:58:47;20.77;;;17.30;;
30335;SDS011;17142;47.990;7.846;2022-08-19T12:01:14;16.87;;;14.87;;
30335;SDS011;17142;47.990;7.846;2022-08-19T12:03:45;18.07;;;15.03;;
30335;SDS011;17142;47.990;7.846;2022-08-19T12:06:16;17.30;;;15.10;;
30335;SDS011;17142;47.990;7.846;2022-08-19T12:08:48;15.27;;;12.90;;
30335;SDS011;17142;47.990;7.846;2022-08-19T12:11:14;20.63;;;18.37;;
30335;SDS011;17142;47.990;7.846;2022-08-19T12:13:40;13.87;;;12.30;;
30335;SDS011;17142;47.990;7.846;2022-08-19T12:16:12;21.10;;;17.13;;
30335;SDS011;17142;47.990;7.846;2022-08-19T12:18:41;17.73;;;15.90;;
30335;SDS011;17142;47.990;7.846;2022-08-19T12:21:12;14.43;;;12.90;;
30335;SDS011;17142;47.990;7.846;2022-08-19T12:23:39;18.70;;;15.33;;
30335;SDS011;17142;47.990;7.846;2022-08-19T12:26:10;17.47;;;15.40;;
30335;SDS011;17142;47.990;7.846;2022-08-19T12:28:38;13.63;;;12.43;;
30335;SDS011;17142;47.990;7.846;2022-08-19T12:31:07;14.40;;;12.87;;
30335;SDS011;17142;47.990;7.846;2022-08-19T12:33:33;15.97;;;11.80;;
30335;SDS011;17142;47.990;7.846;2022-08-19T12:36:03;10.10;;;9.03;;
30335;SDS011;17142;47.990;7.846;2022-08-19T12:38:31;14.60;;;13.10;;
30335;SDS011;17142;47.990;7.846;2022-08-19T12:40:57;14.70;;;13.30;;
30335;SDS011;17142;47.990;7.846;2022-08-19T12:43:23;17.70;;;15.93;;
30335;SDS011;17142;47.990;7.846;2022-08-19T12:45:49;17.17;;;13.47;;
30335;SDS011;17142;47.990;7.846;2022-08-19T12:48:17;12.60;;;11.30;;
30335;SDS011;17142;47.990;7.846;2022-08-19T12:50:47;13.43;;;12.03;;
30335;SDS011;17142;47.990;7.846;2022-08-19T12:53:14;17.13;;;13.10;;
30335;SDS011;17142;47.990;7.846;2022-08-19T12:55:41;15.53;;;14.03;;
30335;SDS011;17142;47.990;7.846;2022-08-19T12:58:10;15.00;;;13.40;;
30335;SDS011;17142;47.990;7.846;2022-08-19T13:00:37;12.57;;;11.37;;
30335;SDS011;17142;47.990;7.846;2022-08-19T13:03:03;17.17;;;15.50;;
30335;SDS011;17142;47.990;7.846;2022-08-19T13:05:32;13.87;;;12.00;;
30335;SDS011;17142;47.990;7.846;2022-08-19T13:07:59;12.63;;;11.33;;
30335;SDS011;17142;47.990;7.846;2022-08-19T13:10:29;11.97;;;10.77;;
30335;SDS011;17142;47.990;7.846;2022-08-19T13:13:03;11.50;;;10.40;;
30335;SDS011;17142;47.990;7.846;2022-08-19T13:15:32;11.03;;;9.93;;
30335;SDS011;17142;47.990;7.846;2022-08-19T13:17:59;11.33;;;10.30;;
30335;SDS011;17142;47.990;7.846;2022-08-19T13:20:25;11.90;;;10.80;;
30335;SDS011;17142;47.990;7.846;2022-08-19T13:22:51;12.97;;;11.57;;
30335;SDS011;17142;47.990;7.846;2022-08-19T13:25:19;12.33;;;11.13;;
30335;SDS011;17142;47.990;7.846;2022-08-19T13:27:47;13.33;;;11.93;;
30335;SDS011;17142;47.990;7.846;2022-08-19T13:30:15;16.00;;;14.40;;
30335;SDS011;17142;47.990;7.846;2022-08-19T13:33:00;12.33;;;11.10;;
30335;SDS011;17142;47.990;7.846;2022-08-19T13:38:09;14.83;;;12.33;;
30335;SDS011;17142;47.990;7.846;2022-08-19T13:40:36;12.60;;;11.30;;
30335;SDS011;17142;47.990;7.846;2022-08-19T13:43:04;12.97;;;11.77;;
30335;SDS011;17142;47.990;7.846;2022-08-19T13:45:30;14.00;;;12.57;;
30335;SDS011;17142;47.990;7.846;2022-08-19T13:47:58;13.10;;;11.90;;
30335;SDS011;17142;47.990;7.846;2022-08-19T13:50:30;11.23;;;10.23;;
30335;SDS011;17142;47.990;7.846;2022-08-19T13:52:56;12.03;;;10.93;;
30335;SDS011;17142;47.990;7.846;2022-08-19T13:55:22;12.90;;;11.50;;
30335;SDS011;17142;47.990;7.846;2022-08-19T13:57:53;11.40;;;10.40;;
30335;SDS011;17142;47.990;7.846;2022-08-19T14:00:20;10.30;;;9.20;;
30335;SDS011;17142;47.990;7.846;2022-08-19T14:02:51;11.70;;;10.60;;
30335;SDS011;17142;47.990;7.846;2022-08-19T14:05:19;11.43;;;10.40;;
30335;SDS011;17142;47.990;7.846;2022-08-19T14:07:45;10.17;;;9.27;;
30335;SDS011;17142;47.990;7.846;2022-08-19T14:10:14;10.63;;;9.63;;
30335;SDS011;17142;47.990;7.846;2022-08-19T14:12:41;11.30;;;10.40;;
30335;SDS011;17142;47.990;7.846;2022-08-19T14:15:08;9.67;;;8.67;;
30335;SDS011;17142;47.990;7.846;2022-08-19T14:17:37;10.87;;;9.97;;
30335;SDS011;17142;47.990;7.846;2022-08-19T14:20:06;10.90;;;9.57;;
30335;SDS011;17142;47.990;7.846;2022-08-19T14:22:37;10.20;;;9.40;;
30335;SDS011;17142;47.990;7.846;2022-08-19T14:25:09;10.07;;;9.17;;
30335;SDS011;17142;47.990;7.846;2022-08-19T14:27:43;9.63;;;8.83;;
30335;SDS011;17142;47.990;7.846;2022-08-19T14:30:12;12.80;;;11.60;;
30335;SDS011;17142;47.990;7.846;2022-08-19T14:32:42;11.33;;;10.30;;
30335;SDS011;17142;47.990;7.846;2022-08-19T14:35:08;13.10;;;11.37;;
30335;SDS011;17142;47.990;7.846;2022-08-19T14:37:34;12.43;;;11.33;;
30335;SDS011;17142;47.990;7.846;2022-08-19T14:40:00;12.20;;;11.10;;
30335;SDS011;17142;47.990;7.846;2022-08-19T14:42:28;13.50;;;11.63;;
30335;SDS011;17142;47.990;7.846;2022-08-19T14:44:57;14.43;;;13.13;;
30335;SDS011;17142;47.990;7.846;2022-08-19T14:47:25;12.50;;;11.37;;
30335;SDS011;17142;47.990;7.846;2022-08-19T14:49:54;11.77;;;10.67;;
30335;SDS011;17142;47.990;7.846;2022-08-19T14:52:19;12.30;;;9.97;;
30335;SDS011;17142;47.990;7.846;2022-08-19T14:54:45;10.73;;;9.73;;
30335;SDS011;17142;47.990;7.846;2022-08-19T14:57:12;11.53;;;9.90;;
30335;SDS011;17142;47.990;7.846;2022-08-19T14:59:39;10.50;;;9.47;;
30335;SDS011;17142;47.990;7.846;2022-08-19T15:02:06;10.20;;;9.13;;
30335;SDS011;17142;47.990;7.846;2022-08-19T15:04:31;12.47;;;11.23;;
30335;SDS011;17142;47.990;7.846;2022-08-19T15:06:57;12.67;;;10.70;;
30335;SDS011;17142;47.990;7.846;2022-08-19T15:09:23;12.57;;;11.00;;
30335;SDS011;17142;47.990;7.846;2022-08-19T15:11:51;11.73;;;10.47;;
30335;SDS011;17142;47.990;7.846;2022-08-19T15:14:16;10.97;;;9.87;;
30335;SDS011;17142;47.990;7.846;2022-08-19T15:16:45;11.80;;;10.77;;
30335;SDS011;17142;47.990;7.846;2022-08-19T15:19:11;9.67;;;8.67;;
30335;SDS011;17142;47.990;7.846;2022-08-19T15:21:40;9.67;;;8.87;;
30335;SDS011;17142;47.990;7.846;2022-08-19T15:24:06;9.97;;;8.93;;
30335;SDS011;17142;47.990;7.846;2022-08-19T15:26:36;11.23;;;10.20;;
30335;SDS011;17142;47.990;7.846;2022-08-19T15:29:03;10.90;;;9.87;;
30335;SDS011;17142;47.990;7.846;2022-08-19T15:31:31;12.40;;;11.20;;
30335;SDS011;17142;47.990;7.846;2022-08-19T15:34:00;11.70;;;10.80;;
30335;SDS011;17142;47.990;7.846;2022-08-19T15:36:26;12.00;;;10.50;;
30335;SDS011;17142;47.990;7.846;2022-08-19T15:38:53;10.93;;;9.93;;
30335;SDS011;17142;47.990;7.846;2022-08-19T15:41:24;9.40;;;8.50;;
30335;SDS011;17142;47.990;7.846;2022-08-19T15:43:55;10.23;;;8.43;;
30335;SDS011;17142;47.990;7.846;2022-08-19T15:46:25;10.47;;;9.30;;
30335;SDS011;17142;47.990;7.846;2022-08-19T15:48:55;10.10;;;9.20;;
30335;SDS011;17142;47.990;7.846;2022-08-19T15:51:22;10.90;;;9.83;;
30335;SDS011;17142;47.990;7.846;2022-08-19T15:53:48;11.47;;;9.90;;
30335;SDS011;17142;47.990;7.846;2022-08-19T15:56:17;11.30;;;10.30;;
30335;SDS011;17142;47.990;7.846;2022-08-19T15:58:45;9.57;;;8.73;;
30335;SDS011;17142;47.990;7.846;2022-08-19T16:01:30;9.90;;;8.90;;
30335;SDS011;17142;47.990;7.846;2022-08-19T16:04:14;10.37;;;9.47;;
30335;SDS011;17142;47.990;7.846;2022-08-19T16:06:59;8.60;;;7.90;;
30335;SDS011;17142;47.990;7.846;2022-08-19T16:09:29;9.40;;;8.60;;
30335;SDS011;17142;47.990;7.846;2022-08-19T16:11:59;9.63;;;8.73;;
30335;SDS011;17142;47.990;7.846;2022-08-19T16:14:28;9.07;;;8.33;;
30335;SDS011;17142;47.990;7.846;2022-08-19T16:17:02;12.07;;;10.97;;
30335;SDS011;17142;47.990;7.846;2022-08-19T16:19:32;8.93;;;7.53;;
30335;SDS011;17142;47.990;7.846;2022-08-19T16:21:57;9.67;;;8.57;;
30335;SDS011;17142;47.990;7.846;2022-08-19T16:24:24;9.30;;;8.50;;
30335;SDS011;17142;47.990;7.846;2022-08-19T16:26:51;10.30;;;9.40;;
30335;SDS011;17142;47.990;7.846;2022-08-19T16:29:18;9.60;;;8.80;;
30335;SDS011;17142;47.990;7.846;2022-08-19T16:31:46;10.13;;;9.23;;
30335;SDS011;17142;47.990;7.846;2022-08-19T16:34:13;10.13;;;9.20;;
30335;SDS011;17142;47.990;7.846;2022-08-19T16:36:39;9.83;;;8.83;;
30335;SDS011;17142;47.990;7.846;2022-08-19T16:39:09;9.67;;;8.80;;
30335;SDS011;17142;47.990;7.846;2022-08-19T16:41:36;9.37;;;8.47;;
30335;SDS011;17142;47.990;7.846;2022-08-19T16:44:03;8.93;;;8.03;;
30335;SDS011;17142;47.990;7.846;2022-08-19T16:46:30;11.70;;;9.63;;
30335;SDS011;17142;47.990;7.846;2022-08-19T16:48:56;9.20;;;8.40;;
30335;SDS011;17142;47.990;7.846;2022-08-19T16:51:21;9.33;;;8.37;;
30335;SDS011;17142;47.990;7.846;2022-08-19T16:53:47;8.60;;;7.80;;
30335;SDS011;17142;47.990;7.846;2022-08-19T16:56:13;7.70;;;7.00;;
30335;SDS011;17142;47.990;7.846;2022-08-19T16:58:39;15.53;;;8.30;;
30335;SDS011;17142;47.990;7.846;2022-08-19T17:01:06;10.00;;;9.00;;
30335;SDS011;17142;47.990;7.846;2022-08-19T17:03:34;9.63;;;8.80;;
30335;SDS011;17142;47.990;7.846;2022-08-19T17:06:07;8.17;;;7.43;;
30335;SDS011;17142;47.990;7.846;2022-08-19T17:08:39;8.47;;;7.53;;
30335;SDS011;17142;47.990;7.846;2022-08-19T17:11:05;8.37;;;7.57;;
30335;SDS011;17142;47.990;7.846;2022-08-19T17:13:31;9.73;;;9.03;;
30335;SDS011;17142;47.990;7.846;2022-08-19T17:15:56;9.17;;;8.40;;
30335;SDS011;17142;47.990;7.846;2022-08-19T17:18:23;8.90;;;8.20;;
30335;SDS011;17142;47.990;7.846;2022-08-19T17:20:50;9.40;;;8.50;;
30335;SDS011;17142;47.990;7.846;2022-08-19T17:23:18;9.03;;;8.13;;
30335;SDS011;17142;47.990;7.846;2022-08-19T17:25:46;9.00;;;8.10;;
30335;SDS011;17142;47.990;7.846;2022-08-19T17:28:16;9.93;;;8.93;;
30335;SDS011;17142;47.990;7.846;2022-08-19T17:30:44;9.93;;;8.93;;
30335;SDS011;17142;47.990;7.846;2022-08-19T17:33:10;8.97;;;8.20;;
30335;SDS011;17142;47.990;7.846;2022-08-19T17:35:38;8.47;;;7.67;;
30335;SDS011;17142;47.990;7.846;2022-08-19T17:38:09;9.33;;;8.37;;
30335;SDS011;17142;47.990;7.846;2022-08-19T17:40:37;10.63;;;9.40;;
30335;SDS011;17142;47.990;7.846;2022-08-19T17:43:09;8.83;;;8.03;;
30335;SDS011;17142;47.990;7.846;2022-08-19T17:45:40;9.40;;;8.60;;
30335;SDS011;17142;47.990;7.846;2022-08-19T17:48:08;9.40;;;8.60;;
30335;SDS011;17142;47.990;7.846;2022-08-19T17:50:35;8.37;;;7.67;;
30335;SDS011;17142;47.990;7.846;2022-08-19T17:53:01;9.43;;;8.53;;
30335;SDS011;17142;47.990;7.846;2022-08-19T17:55:28;9.60;;;8.70;;
30335;SDS011;17142;47.990;7.846;2022-08-19T17:57:54;9.60;;;8.70;;
30335;SDS011;17142;47.990;7.846;2022-08-19T18:00:20;9.73;;;8.83;;
30335;SDS011;17142;47.990;7.846;2022-08-19T18:02:48;9.60;;;8.80;;
30335;SDS011;17142;47.990;7.846;2022-08-19T18:05:25;10.13;;;9.13;;
30335;SDS011;17142;47.990;7.846;2022-08-19T18:07:54;8.97;;;8.13;;
30335;SDS011;17142;47.990;7.846;2022-08-19T18:10:22;10.47;;;9.37;;
30335;SDS011;17142;47.990;7.846;2022-08-19T18:12:50;9.50;;;8.63;;
30335;SDS011;17142;47.990;7.846;2022-08-19T18:15:17;9.53;;;8.63;;
30335;SDS011;17142;47.990;7.846;2022-08-19T18:17:44;10.83;;;9.73;;
30335;SDS011;17142;47.990;7.846;2022-08-19T18:20:11;9.40;;;8.50;;
30335;SDS011;17142;47.990;7.846;2022-08-19T18:22:40;9.67;;;8.77;;
30335;SDS011;17142;47.990;7.846;2022-08-19T18:25:29;9.83;;;8.90;;
30335;SDS011;17142;47.990;7.846;2022-08-19T18:27:57;10.00;;;9.10;;
30335;SDS011;17142;47.990;7.846;2022-08-19T18:30:27;9.80;;;8.80;;
30335;SDS011;17142;47.990;7.846;2022-08-19T18:32:58;10.93;;;9.90;;
30335;SDS011;17142;47.990;7.846;2022-08-19T18:35:27;10.43;;;9.43;;
30335;SDS011;17142;47.990;7.846;2022-08-19T18:37:55;12.80;;;10.43;;
30335;SDS011;17142;47.990;7.846;2022-08-19T18:40:22;11.20;;;10.20;;
30335;SDS011;17142;47.990;7.846;2022-08-19T18:43:22;12.73;;;11.53;;
30335;SDS011;17142;47.990;7.846;2022-08-19T18:45:48;11.93;;;10.83;;
30335;SDS011;17142;47.990;7.846;2022-08-19T18:48:32;12.80;;;11.50;;
30335;SDS011;17142;47.990;7.846;2022-08-19T18:51:17;11.90;;;10.70;;
30335;SDS011;17142;47.990;7.846;2022-08-19T18:53:44;12.87;;;11.67;;
30335;SDS011;17142;47.990;7.846;2022-08-19T18:56:12;12.77;;;10.57;;
30335;SDS011;17142;47.990;7.846;2022-08-19T18:58:39;12.90;;;11.60;;
30335;SDS011;17142;47.990;7.846;2022-08-19T19:01:19;12.23;;;11.10;;
30335;SDS011;17142;47.990;7.846;2022-08-19T19:03:51;11.50;;;10.30;;
30335;SDS011;17142;47.990;7.846;2022-08-19T19:06:20;12.73;;;11.47;;
30335;SDS011;17142;47.990;7.846;2022-08-19T19:08:48;11.93;;;10.70;;
30335;SDS011;17142;47.990;7.846;2022-08-19T19:11:23;11.97;;;10.60;;
30335;SDS011;17142;47.990;7.846;2022-08-19T19:14:00;13.97;;;12.40;;
30335;SDS011;17142;47.990;7.846;2022-08-19T19:16:27;11.43;;;10.43;;
30335;SDS011;17142;47.990;7.846;2022-08-19T19:18:56;12.40;;;11.30;;
30335;SDS011;17142;47.990;7.846;2022-08-19T19:21:25;12.40;;;11.17;;
30335;SDS011;17142;47.990;7.846;2022-08-19T19:23:53;12.43;;;11.10;;
30335;SDS011;17142;47.990;7.846;2022-08-19T19:26:19;13.80;;;11.27;;
30335;SDS011;17142;47.990;7.846;2022-08-19T19:28:46;11.50;;;10.47;;
30335;SDS011;17142;47.990;7.846;2022-08-19T19:31:16;11.77;;;10.70;;
30335;SDS011;17142;47.990;7.846;2022-08-19T19:33:52;11.83;;;10.67;;
30335;SDS011;17142;47.990;7.846;2022-08-19T19:36:21;12.53;;;10.93;;
30335;SDS011;17142;47.990;7.846;2022-08-19T19:38:50;13.40;;;12.00;;
30335;SDS011;17142;47.990;7.846;2022-08-19T19:41:18;12.77;;;11.43;;
30335;SDS011;17142;47.990;7.846;2022-08-19T19:43:48;13.30;;;12.00;;
30335;SDS011;17142;47.990;7.846;2022-08-19T19:46:18;12.53;;;11.43;;
30335;SDS011;17142;47.990;7.846;2022-08-19T19:48:44;13.07;;;11.60;;
30335;SDS011;17142;47.990;7.846;2022-08-19T19:51:12;13.57;;;11.87;;
30335;SDS011;17142;47.990;7.846;2022-08-19T19:53:39;11.40;;;10.30;;
30335;SDS011;17142;47.990;7.846;2022-08-19T19:56:04;12.50;;;11.20;;
30335;SDS011;17142;47.990;7.846;2022-08-19T19:58:32;13.47;;;10.23;;
30335;SDS011;17142;47.990;7.846;2022-08-19T20:01:00;12.60;;;10.80;;
30335;SDS011;17142;47.990;7.846;2022-08-19T20:03:31;13.17;;;11.80;;
30335;SDS011;17142;47.990;7.846;2022-08-19T20:05:57;13.97;;;11.07;;
30335;SDS011;17142;47.990;7.846;2022-08-19T20:08:24;11.77;;;10.67;;
30335;SDS011;17142;47.990;7.846;2022-08-19T20:11:11;13.03;;;11.03;;
30335;SDS011;17142;47.990;7.846;2022-08-19T20:13:40;11.90;;;10.70;;
30335;SDS011;17142;47.990;7.846;2022-08-19T20:16:06;11.93;;;10.80;;
30335;SDS011;17142;47.990;7.846;2022-08-19T20:18:32;12.47;;;11.17;;
30335;SDS011;17142;47.990;7.846;2022-08-19T20:21:00;11.77;;;10.57;;
30335;SDS011;17142;47.990;7.846;2022-08-19T20:23:26;12.20;;;10.97;;
30335;SDS011;17142;47.990;7.846;2022-08-19T20:25:56;11.73;;;10.53;;
30335;SDS011;17142;47.990;7.846;2022-08-19T20:28:24;14.13;;;11.80;;
30335;SDS011;17142;47.990;7.846;2022-08-19T20:30:52;15.30;;;10.23;;
30335;SDS011;17142;47.990;7.846;2022-08-19T20:33:18;12.57;;;11.27;;
30335;SDS011;17142;47.990;7.846;2022-08-19T20:35:46;15.73;;;11.73;;
30335;SDS011;17142;47.990;7.846;2022-08-19T20:38:11;13.60;;;12.13;;
30335;SDS011;17142;47.990;7.846;2022-08-19T20:40:37;12.83;;;11.67;;
30335;SDS011;17142;47.990;7.846;2022-08-19T20:43:06;14.07;;;12.27;;
30335;SDS011;17142;47.990;7.846;2022-08-19T20:45:36;12.47;;;11.30;;
30335;SDS011;17142;47.990;7.846;2022-08-19T20:48:05;13.07;;;11.83;;
30335;SDS011;17142;47.990;7.846;2022-08-19T20:50:32;16.07;;;14.30;;
30335;SDS011;17142;47.990;7.846;2022-08-19T20:53:07;15.17;;;13.70;;
30335;SDS011;17142;47.990;7.846;2022-08-19T20:55:37;16.80;;;14.27;;
30335;SDS011;17142;47.990;7.846;2022-08-19T20:58:03;14.10;;;12.60;;
30335;SDS011;17142;47.990;7.846;2022-08-19T21:00:29;15.07;;;13.67;;
30335;SDS011;17142;47.990;7.846;2022-08-19T21:03:00;16.77;;;13.87;;
30335;SDS011;17142;47.990;7.846;2022-08-19T21:05:28;16.33;;;14.57;;
30335;SDS011;17142;47.990;7.846;2022-08-19T21:07:54;14.53;;;13.03;;